sensor_id;sensor_type;location;lat;lon;timestamp;temperature;humidity
9762;DHT22;4920;49.594;11.022;2023-07-13T00:01:16;21.80;83.90
9762;DHT22;4920;49.594;11.022;2023-07-13T00:03:45;21.80;83.50
9762;DHT22;4920;49.594;11.022;2023-07-13T00:06:14;21.70;83.50
9762;DHT22;4920;49.594;11.022;2023-07-13T00:08:43;21.80;84.50
9762;DHT22;4920;49.594;11.022;2023-07-13T00:11:12;21.80;83.30
9762;DHT22;4920;49.594;11.022;2023-07-13T00:13:41;21.80;83.20
9762;DHT22;4920;49.594;11.022;2023-07-13T00:16:14;21.70;83.30
9762;DHT22;4920;49.594;11.022;2023-07-13T00:18:42;21.70;83.50
9762;DHT22;4920;49.594;11.022;2023-07-13T00:21:11;21.60;83.80
9762;DHT22;4920;49.594;11.022;2023-07-13T00:23:41;21.50;83.70
9762;DHT22;4920;49.594;11.022;2023-07-13T00:26:11;21.50;83.80
9762;DHT22;4920;49.594;11.022;2023-07-13T00:28:41;21.40;83.90
9762;DHT22;4920;49.594;11.022;2023-07-13T00:31:12;21.40;84.10
9762;DHT22;4920;49.594;11.022;2023-07-13T00:33:42;21.30;84.20
9762;DHT22;4920;49.594;11.022;2023-07-13T00:36:11;21.20;84.50
9762;DHT22;4920;49.594;11.022;2023-07-13T00:38:40;21.20;84.60
9762;DHT22;4920;49.594;11.022;2023-07-13T00:41:09;21.10;84.70
9762;DHT22;4920;49.594;11.022;2023-07-13T00:43:38;21.10;85.00
9762;DHT22;4920;49.594;11.022;2023-07-13T00:46:18;21.00;85.00
9762;DHT22;4920;49.594;11.022;2023-07-13T00:48:49;20.90;85.00
9762;DHT22;4920;49.594;11.022;2023-07-13T00:51:21;20.80;85.00
9762;DHT22;4920;49.594;11.022;2023-07-13T00:53:51;20.70;85.50
9762;DHT22;4920;49.594;11.022;2023-07-13T00:56:20;20.60;85.40
9762;DHT22;4920;49.594;11.022;2023-07-13T00:58:49;20.60;86.30
9762;DHT22;4920;49.594;11.022;2023-07-13T01:01:20;20.50;86.20
9762;DHT22;4920;49.594;11.022;2023-07-13T01:03:48;20.40;86.10
9762;DHT22;4920;49.594;11.022;2023-07-13T01:06:17;20.30;86.00
9762;DHT22;4920;49.594;11.022;2023-07-13T01:08:46;20.20;86.60
9762;DHT22;4920;49.594;11.022;2023-07-13T01:11:19;20.10;87.10
9762;DHT22;4920;49.594;11.022;2023-07-13T01:13:49;20.00;87.10
9762;DHT22;4920;49.594;11.022;2023-07-13T01:16:25;20.00;87.40
9762;DHT22;4920;49.594;11.022;2023-07-13T01:18:55;19.90;87.60
9762;DHT22;4920;49.594;11.022;2023-07-13T01:21:27;19.80;87.90
9762;DHT22;4920;49.594;11.022;2023-07-13T01:23:56;19.70;88.30
9762;DHT22;4920;49.594;11.022;2023-07-13T01:26:25;19.60;88.40
9762;DHT22;4920;49.594;11.022;2023-07-13T01:28:54;19.60;88.60
9762;DHT22;4920;49.594;11.022;2023-07-13T01:31:24;19.60;88.30
9762;DHT22;4920;49.594;11.022;2023-07-13T01:33:53;19.60;88.30
9762;DHT22;4920;49.594;11.022;2023-07-13T01:36:22;19.50;88.70
9762;DHT22;4920;49.594;11.022;2023-07-13T01:38:52;19.60;89.00
9762;DHT22;4920;49.594;11.022;2023-07-13T01:41:21;19.50;88.80
9762;DHT22;4920;49.594;11.022;2023-07-13T01:43:50;19.50;88.70
9762;DHT22;4920;49.594;11.022;2023-07-13T01:46:18;19.50;88.80
9762;DHT22;4920;49.594;11.022;2023-07-13T01:48:51;19.40;89.00
9762;DHT22;4920;49.594;11.022;2023-07-13T01:51:20;19.40;89.10
9762;DHT22;4920;49.594;11.022;2023-07-13T01:53:49;19.40;89.30
9762;DHT22;4920;49.594;11.022;2023-07-13T01:56:20;19.30;89.10
9762;DHT22;4920;49.594;11.022;2023-07-13T01:58:49;19.30;89.10
9762;DHT22;4920;49.594;11.022;2023-07-13T02:01:17;19.20;89.50
9762;DHT22;4920;49.594;11.022;2023-07-13T02:03:46;19.10;89.70
9762;DHT22;4920;49.594;11.022;2023-07-13T02:06:15;19.00;89.90
9762;DHT22;4920;49.594;11.022;2023-07-13T02:08:44;19.10;90.00
9762;DHT22;4920;49.594;11.022;2023-07-13T02:11:12;19.00;89.90
9762;DHT22;4920;49.594;11.022;2023-07-13T02:13:43;18.90;90.10
9762;DHT22;4920;49.594;11.022;2023-07-13T02:16:12;18.90;90.10
9762;DHT22;4920;49.594;11.022;2023-07-13T02:18:41;18.90;90.20
9762;DHT22;4920;49.594;11.022;2023-07-13T02:21:10;18.80;90.20
9762;DHT22;4920;49.594;11.022;2023-07-13T02:23:38;18.80;90.30
9762;DHT22;4920;49.594;11.022;2023-07-13T02:26:07;18.70;90.30
9762;DHT22;4920;49.594;11.022;2023-07-13T02:28:36;18.70;90.30
9762;DHT22;4920;49.594;11.022;2023-07-13T02:31:08;18.60;90.20
9762;DHT22;4920;49.594;11.022;2023-07-13T02:33:37;18.70;90.30
9762;DHT22;4920;49.594;11.022;2023-07-13T02:36:06;18.60;90.20
9762;DHT22;4920;49.594;11.022;2023-07-13T02:38:36;18.60;90.20
9762;DHT22;4920;49.594;11.022;2023-07-13T02:41:06;18.60;90.30
9762;DHT22;4920;49.594;11.022;2023-07-13T02:43:37;18.60;90.40
9762;DHT22;4920;49.594;11.022;2023-07-13T02:46:10;18.50;90.50
9762;DHT22;4920;49.594;11.022;2023-07-13T02:48:39;18.40;90.60
9762;DHT22;4920;49.594;11.022;2023-07-13T02:51:08;18.30;90.70
9762;DHT22;4920;49.594;11.022;2023-07-13T02:53:37;18.20;90.90
9762;DHT22;4920;49.594;11.022;2023-07-13T02:56:06;18.20;91.10
9762;DHT22;4920;49.594;11.022;2023-07-13T02:58:35;18.10;91.30
9762;DHT22;4920;49.594;11.022;2023-07-13T03:01:07;18.00;91.30
9762;DHT22;4920;49.594;11.022;2023-07-13T03:03:38;18.00;91.30
9762;DHT22;4920;49.594;11.022;2023-07-13T03:06:07;17.90;91.40
9762;DHT22;4920;49.594;11.022;2023-07-13T03:08:45;17.90;91.50
9762;DHT22;4920;49.594;11.022;2023-07-13T03:11:16;17.80;91.60
9762;DHT22;4920;49.594;11.022;2023-07-13T03:13:49;17.80;91.70
9762;DHT22;4920;49.594;11.022;2023-07-13T03:16:19;17.70;91.70
9762;DHT22;4920;49.594;11.022;2023-07-13T03:18:51;17.70;91.80
9762;DHT22;4920;49.594;11.022;2023-07-13T03:21:20;17.60;92.00
9762;DHT22;4920;49.594;11.022;2023-07-13T03:23:49;17.60;92.00
9762;DHT22;4920;49.594;11.022;2023-07-13T03:26:19;17.60;92.00
9762;DHT22;4920;49.594;11.022;2023-07-13T03:28:49;17.60;92.10
9762;DHT22;4920;49.594;11.022;2023-07-13T03:31:22;17.60;92.20
9762;DHT22;4920;49.594;11.022;2023-07-13T03:33:53;17.50;92.20
9762;DHT22;4920;49.594;11.022;2023-07-13T03:36:24;17.50;92.30
9762;DHT22;4920;49.594;11.022;2023-07-13T03:38:59;17.60;92.30
9762;DHT22;4920;49.594;11.022;2023-07-13T03:41:44;17.60;92.20
9762;DHT22;4920;49.594;11.022;2023-07-13T03:44:13;17.60;92.20
9762;DHT22;4920;49.594;11.022;2023-07-13T03:46:42;17.60;92.10
9762;DHT22;4920;49.594;11.022;2023-07-13T03:49:12;17.70;92.10
9762;DHT22;4920;49.594;11.022;2023-07-13T03:51:41;17.70;92.00
9762;DHT22;4920;49.594;11.022;2023-07-13T03:54:09;17.80;92.10
9762;DHT22;4920;49.594;11.022;2023-07-13T03:56:38;17.70;92.00
9762;DHT22;4920;49.594;11.022;2023-07-13T03:59:08;17.70;92.00
9762;DHT22;4920;49.594;11.022;2023-07-13T04:01:38;17.80;91.70
9762;DHT22;4920;49.594;11.022;2023-07-13T04:04:13;17.80;91.70
9762;DHT22;4920;49.594;11.022;2023-07-13T04:06:43;17.90;91.70
9762;DHT22;4920;49.594;11.022;2023-07-13T04:09:12;17.90;91.70
9762;DHT22;4920;49.594;11.022;2023-07-13T04:11:41;18.00;91.50
9762;DHT22;4920;49.594;11.022;2023-07-13T04:14:10;18.00;91.40
9762;DHT22;4920;49.594;11.022;2023-07-13T04:16:38;18.00;91.40
9762;DHT22;4920;49.594;11.022;2023-07-13T04:19:08;18.00;91.40
9762;DHT22;4920;49.594;11.022;2023-07-13T04:21:38;18.00;91.40
9762;DHT22;4920;49.594;11.022;2023-07-13T04:24:07;18.10;91.30
9762;DHT22;4920;49.594;11.022;2023-07-13T04:26:36;18.10;91.30
9762;DHT22;4920;49.594;11.022;2023-07-13T04:29:06;18.10;91.30
9762;DHT22;4920;49.594;11.022;2023-07-13T04:31:35;18.30;91.10
9762;DHT22;4920;49.594;11.022;2023-07-13T04:34:04;18.40;90.70
9762;DHT22;4920;49.594;11.022;2023-07-13T04:36:32;18.60;90.50
9762;DHT22;4920;49.594;11.022;2023-07-13T04:39:06;18.60;90.30
9762;DHT22;4920;49.594;11.022;2023-07-13T04:41:36;18.80;90.30
9762;DHT22;4920;49.594;11.022;2023-07-13T04:44:04;19.00;89.80
9762;DHT22;4920;49.594;11.022;2023-07-13T04:46:33;19.10;89.20
9762;DHT22;4920;49.594;11.022;2023-07-13T04:49:02;19.30;88.90
9762;DHT22;4920;49.594;11.022;2023-07-13T04:51:31;19.50;88.70
9762;DHT22;4920;49.594;11.022;2023-07-13T04:54:00;19.60;88.30
9762;DHT22;4920;49.594;11.022;2023-07-13T04:56:30;19.60;87.90
9762;DHT22;4920;49.594;11.022;2023-07-13T04:58:58;19.80;87.00
9762;DHT22;4920;49.594;11.022;2023-07-13T05:01:27;20.10;85.80
9762;DHT22;4920;49.594;11.022;2023-07-13T05:03:56;20.30;85.50
9762;DHT22;4920;49.594;11.022;2023-07-13T05:06:26;20.50;84.50
9762;DHT22;4920;49.594;11.022;2023-07-13T05:08:55;20.50;84.10
9762;DHT22;4920;49.594;11.022;2023-07-13T05:11:24;20.60;84.20
9762;DHT22;4920;49.594;11.022;2023-07-13T05:13:54;20.70;83.80
9762;DHT22;4920;49.594;11.022;2023-07-13T05:16:23;20.80;82.90
9762;DHT22;4920;49.594;11.022;2023-07-13T05:18:52;21.20;82.20
9762;DHT22;4920;49.594;11.022;2023-07-13T05:21:20;21.90;81.50
9762;DHT22;4920;49.594;11.022;2023-07-13T05:23:50;22.60;78.30
9762;DHT22;4920;49.594;11.022;2023-07-13T05:26:18;23.20;76.90
9762;DHT22;4920;49.594;11.022;2023-07-13T05:28:47;23.50;74.90
9762;DHT22;4920;49.594;11.022;2023-07-13T05:31:18;23.60;74.20
9762;DHT22;4920;49.594;11.022;2023-07-13T05:33:47;24.00;73.10
9762;DHT22;4920;49.594;11.022;2023-07-13T05:36:15;24.00;73.10
9762;DHT22;4920;49.594;11.022;2023-07-13T05:38:44;24.20;72.00
9762;DHT22;4920;49.594;11.022;2023-07-13T05:41:13;24.50;71.20
9762;DHT22;4920;49.594;11.022;2023-07-13T05:43:42;24.40;70.70
9762;DHT22;4920;49.594;11.022;2023-07-13T05:46:10;24.20;70.70
9762;DHT22;4920;49.594;11.022;2023-07-13T05:48:41;24.00;71.30
9762;DHT22;4920;49.594;11.022;2023-07-13T05:51:09;23.80;71.60
9762;DHT22;4920;49.594;11.022;2023-07-13T05:53:39;23.60;72.30
9762;DHT22;4920;49.594;11.022;2023-07-13T05:56:07;23.50;73.00
9762;DHT22;4920;49.594;11.022;2023-07-13T05:58:36;23.30;73.40
9762;DHT22;4920;49.594;11.022;2023-07-13T06:01:09;23.10;73.70
9762;DHT22;4920;49.594;11.022;2023-07-13T06:03:40;22.90;73.80
9762;DHT22;4920;49.594;11.022;2023-07-13T06:06:09;23.00;73.90
9762;DHT22;4920;49.594;11.022;2023-07-13T06:08:38;23.00;73.60
9762;DHT22;4920;49.594;11.022;2023-07-13T06:11:11;22.90;73.80
9762;DHT22;4920;49.594;11.022;2023-07-13T06:13:41;22.70;74.30
9762;DHT22;4920;49.594;11.022;2023-07-13T06:16:10;22.60;74.80
9762;DHT22;4920;49.594;11.022;2023-07-13T06:18:40;22.60;74.80
9762;DHT22;4920;49.594;11.022;2023-07-13T06:21:10;22.50;75.00
9762;DHT22;4920;49.594;11.022;2023-07-13T06:23:39;22.60;74.80
9762;DHT22;4920;49.594;11.022;2023-07-13T06:26:09;22.80;75.00
9762;DHT22;4920;49.594;11.022;2023-07-13T06:28:38;23.10;73.50
9762;DHT22;4920;49.594;11.022;2023-07-13T06:31:09;23.30;72.80
9762;DHT22;4920;49.594;11.022;2023-07-13T06:33:40;23.60;71.80
9762;DHT22;4920;49.594;11.022;2023-07-13T06:36:09;23.50;71.80
9762;DHT22;4920;49.594;11.022;2023-07-13T06:38:38;23.40;71.00
9762;DHT22;4920;49.594;11.022;2023-07-13T06:41:07;23.20;71.50
9762;DHT22;4920;49.594;11.022;2023-07-13T06:43:37;23.00;72.30
9762;DHT22;4920;49.594;11.022;2023-07-13T06:46:06;22.90;72.30
9762;DHT22;4920;49.594;11.022;2023-07-13T06:48:35;22.90;72.60
9762;DHT22;4920;49.594;11.022;2023-07-13T06:51:05;22.80;72.90
9762;DHT22;4920;49.594;11.022;2023-07-13T06:53:34;22.70;72.20
9762;DHT22;4920;49.594;11.022;2023-07-13T06:56:03;22.60;72.30
9762;DHT22;4920;49.594;11.022;2023-07-13T06:58:34;22.40;72.80
9762;DHT22;4920;49.594;11.022;2023-07-13T07:01:03;22.30;73.60
9762;DHT22;4920;49.594;11.022;2023-07-13T07:03:34;22.40;74.20
9762;DHT22;4920;49.594;11.022;2023-07-13T07:06:12;22.60;73.80
9762;DHT22;4920;49.594;11.022;2023-07-13T07:08:41;22.70;73.60
9762;DHT22;4920;49.594;11.022;2023-07-13T07:11:14;22.90;73.40
9762;DHT22;4920;49.594;11.022;2023-07-13T07:13:42;23.00;73.50
9762;DHT22;4920;49.594;11.022;2023-07-13T07:16:11;23.20;72.80
9762;DHT22;4920;49.594;11.022;2023-07-13T07:18:40;23.40;72.30
9762;DHT22;4920;49.594;11.022;2023-07-13T07:21:10;23.50;71.90
9762;DHT22;4920;49.594;11.022;2023-07-13T07:23:40;23.40;72.10
9762;DHT22;4920;49.594;11.022;2023-07-13T07:26:09;23.50;71.10
9762;DHT22;4920;49.594;11.022;2023-07-13T07:28:37;23.40;71.30
9762;DHT22;4920;49.594;11.022;2023-07-13T07:31:10;23.40;70.70
9762;DHT22;4920;49.594;11.022;2023-07-13T07:33:42;23.30;71.10
9762;DHT22;4920;49.594;11.022;2023-07-13T07:36:12;23.30;71.70
9762;DHT22;4920;49.594;11.022;2023-07-13T07:38:43;23.40;71.60
9762;DHT22;4920;49.594;11.022;2023-07-13T07:41:13;23.50;71.10
9762;DHT22;4920;49.594;11.022;2023-07-13T07:43:44;23.50;70.90
9762;DHT22;4920;49.594;11.022;2023-07-13T07:46:13;23.50;70.30
9762;DHT22;4920;49.594;11.022;2023-07-13T07:48:42;23.50;69.60
9762;DHT22;4920;49.594;11.022;2023-07-13T07:51:12;23.70;69.80
9762;DHT22;4920;49.594;11.022;2023-07-13T07:53:42;23.90;67.70
9762;DHT22;4920;49.594;11.022;2023-07-13T07:56:11;23.90;67.70
9762;DHT22;4920;49.594;11.022;2023-07-13T07:58:43;23.90;67.70
9762;DHT22;4920;49.594;11.022;2023-07-13T08:01:14;23.90;67.10
9762;DHT22;4920;49.594;11.022;2023-07-13T08:03:46;23.80;65.80
9762;DHT22;4920;49.594;11.022;2023-07-13T08:06:19;23.60;66.40
9762;DHT22;4920;49.594;11.022;2023-07-13T08:08:52;23.50;66.60
9762;DHT22;4920;49.594;11.022;2023-07-13T08:11:21;23.50;66.60
9762;DHT22;4920;49.594;11.022;2023-07-13T08:13:53;23.40;67.00
9762;DHT22;4920;49.594;11.022;2023-07-13T08:16:23;23.30;67.80
9762;DHT22;4920;49.594;11.022;2023-07-13T08:18:51;23.20;68.40
9762;DHT22;4920;49.594;11.022;2023-07-13T08:21:21;23.20;67.50
9762;DHT22;4920;49.594;11.022;2023-07-13T08:23:50;23.10;67.70
9762;DHT22;4920;49.594;11.022;2023-07-13T08:26:19;23.10;65.60
9762;DHT22;4920;49.594;11.022;2023-07-13T08:28:49;23.10;66.80
9762;DHT22;4920;49.594;11.022;2023-07-13T08:31:18;23.20;65.70
9762;DHT22;4920;49.594;11.022;2023-07-13T08:33:46;23.20;65.60
9762;DHT22;4920;49.594;11.022;2023-07-13T08:36:15;23.30;62.70
9762;DHT22;4920;49.594;11.022;2023-07-13T08:38:45;23.40;60.50
9762;DHT22;4920;49.594;11.022;2023-07-13T08:41:16;23.40;61.00
9762;DHT22;4920;49.594;11.022;2023-07-13T08:43:47;23.30;61.40
9762;DHT22;4920;49.594;11.022;2023-07-13T08:46:20;23.40;61.40
9762;DHT22;4920;49.594;11.022;2023-07-13T08:48:55;23.40;59.60
9762;DHT22;4920;49.594;11.022;2023-07-13T08:51:35;23.30;59.50
9762;DHT22;4920;49.594;11.022;2023-07-13T08:54:16;23.30;59.80
9762;DHT22;4920;49.594;11.022;2023-07-13T08:56:46;23.20;60.50
9762;DHT22;4920;49.594;11.022;2023-07-13T08:59:17;23.10;60.60
9762;DHT22;4920;49.594;11.022;2023-07-13T09:01:59;23.10;60.50
9762;DHT22;4920;49.594;11.022;2023-07-13T09:04:34;23.20;59.90
9762;DHT22;4920;49.594;11.022;2023-07-13T09:07:12;23.10;59.60
9762;DHT22;4920;49.594;11.022;2023-07-13T09:09:52;23.20;59.70
9762;DHT22;4920;49.594;11.022;2023-07-13T09:12:30;23.30;58.60
9762;DHT22;4920;49.594;11.022;2023-07-13T09:15:04;23.30;58.10
9762;DHT22;4920;49.594;11.022;2023-07-13T09:17:45;23.30;58.70
9762;DHT22;4920;49.594;11.022;2023-07-13T09:20:21;23.40;58.90
9762;DHT22;4920;49.594;11.022;2023-07-13T09:22:51;23.60;59.50
9762;DHT22;4920;49.594;11.022;2023-07-13T09:25:29;23.60;56.90
9762;DHT22;4920;49.594;11.022;2023-07-13T09:28:00;23.70;56.90
9762;DHT22;4920;49.594;11.022;2023-07-13T09:30:36;23.80;57.70
9762;DHT22;4920;49.594;11.022;2023-07-13T09:33:05;23.70;57.60
9762;DHT22;4920;49.594;11.022;2023-07-13T09:35:35;23.60;56.70
9762;DHT22;4920;49.594;11.022;2023-07-13T09:38:11;23.60;56.80
9762;DHT22;4920;49.594;11.022;2023-07-13T09:40:58;23.80;56.40
9762;DHT22;4920;49.594;11.022;2023-07-13T09:43:28;23.90;56.40
9762;DHT22;4920;49.594;11.022;2023-07-13T09:45:57;24.10;57.20
9762;DHT22;4920;49.594;11.022;2023-07-13T09:48:34;24.10;57.40
9762;DHT22;4920;49.594;11.022;2023-07-13T09:51:12;24.00;57.10
9762;DHT22;4920;49.594;11.022;2023-07-13T09:53:44;24.10;56.70
9762;DHT22;4920;49.594;11.022;2023-07-13T09:56:22;24.40;56.70
9762;DHT22;4920;49.594;11.022;2023-07-13T09:58:52;24.70;56.20
9762;DHT22;4920;49.594;11.022;2023-07-13T10:01:32;24.80;55.50
9762;DHT22;4920;49.594;11.022;2023-07-13T10:04:11;24.70;55.50
9762;DHT22;4920;49.594;11.022;2023-07-13T10:06:41;24.80;55.20
9762;DHT22;4920;49.594;11.022;2023-07-13T10:09:15;24.70;54.70
9762;DHT22;4920;49.594;11.022;2023-07-13T10:11:45;24.50;54.90
9762;DHT22;4920;49.594;11.022;2023-07-13T10:14:17;24.30;55.10
9762;DHT22;4920;49.594;11.022;2023-07-13T10:16:46;24.40;56.00
9762;DHT22;4920;49.594;11.022;2023-07-13T10:19:21;24.60;54.60
9762;DHT22;4920;49.594;11.022;2023-07-13T10:21:56;24.90;54.60
9762;DHT22;4920;49.594;11.022;2023-07-13T10:24:28;25.10;53.80
9762;DHT22;4920;49.594;11.022;2023-07-13T10:27:09;25.30;54.30
9762;DHT22;4920;49.594;11.022;2023-07-13T10:29:43;25.70;54.20
9762;DHT22;4920;49.594;11.022;2023-07-13T10:32:14;26.00;53.70
9762;DHT22;4920;49.594;11.022;2023-07-13T10:34:46;26.00;53.70
9762;DHT22;4920;49.594;11.022;2023-07-13T10:37:20;26.00;53.80
9762;DHT22;4920;49.594;11.022;2023-07-13T10:39:54;26.10;53.70
9762;DHT22;4920;49.594;11.022;2023-07-13T10:42:28;26.10;53.20
9762;DHT22;4920;49.594;11.022;2023-07-13T10:44:58;26.10;53.20
9762;DHT22;4920;49.594;11.022;2023-07-13T10:47:27;26.20;53.60
9762;DHT22;4920;49.594;11.022;2023-07-13T10:49:58;26.40;53.00
9762;DHT22;4920;49.594;11.022;2023-07-13T10:52:45;26.20;53.40
9762;DHT22;4920;49.594;11.022;2023-07-13T10:55:38;25.80;53.90
9762;DHT22;4920;49.594;11.022;2023-07-13T10:58:22;25.60;54.30
9762;DHT22;4920;49.594;11.022;2023-07-13T11:01:00;25.60;54.40
9762;DHT22;4920;49.594;11.022;2023-07-13T11:03:32;25.70;54.30
9762;DHT22;4920;49.594;11.022;2023-07-13T11:06:09;25.80;54.50
9762;DHT22;4920;49.594;11.022;2023-07-13T11:08:53;25.80;54.00
9762;DHT22;4920;49.594;11.022;2023-07-13T11:11:35;25.90;53.70
9762;DHT22;4920;49.594;11.022;2023-07-13T11:14:26;26.10;53.70
9762;DHT22;4920;49.594;11.022;2023-07-13T11:16:55;26.00;53.70
9762;DHT22;4920;49.594;11.022;2023-07-13T11:19:38;26.10;53.60
9762;DHT22;4920;49.594;11.022;2023-07-13T11:22:23;26.40;52.60
9762;DHT22;4920;49.594;11.022;2023-07-13T11:24:57;26.70;52.40
9762;DHT22;4920;49.594;11.022;2023-07-13T11:27:36;27.30;52.50
9762;DHT22;4920;49.594;11.022;2023-07-13T11:30:30;27.80;52.20
9762;DHT22;4920;49.594;11.022;2023-07-13T11:33:18;28.20;50.60
9762;DHT22;4920;49.594;11.022;2023-07-13T11:35:59;28.20;50.80
9762;DHT22;4920;49.594;11.022;2023-07-13T11:38:32;28.20;50.80
9762;DHT22;4920;49.594;11.022;2023-07-13T11:41:04;28.40;50.40
9762;DHT22;4920;49.594;11.022;2023-07-13T11:43:33;28.50;50.10
9762;DHT22;4920;49.594;11.022;2023-07-13T11:46:20;28.50;49.70
9762;DHT22;4920;49.594;11.022;2023-07-13T11:48:49;28.50;49.90
9762;DHT22;4920;49.594;11.022;2023-07-13T11:51:21;28.40;50.40
9762;DHT22;4920;49.594;11.022;2023-07-13T11:53:52;28.40;50.20
9762;DHT22;4920;49.594;11.022;2023-07-13T11:56:25;28.20;50.60
9762;DHT22;4920;49.594;11.022;2023-07-13T11:58:56;28.10;50.50
9762;DHT22;4920;49.594;11.022;2023-07-13T12:01:29;28.20;51.10
9762;DHT22;4920;49.594;11.022;2023-07-13T12:04:01;28.30;50.90
9762;DHT22;4920;49.594;11.022;2023-07-13T12:06:33;28.30;51.30
9762;DHT22;4920;49.594;11.022;2023-07-13T12:09:11;28.50;51.00
9762;DHT22;4920;49.594;11.022;2023-07-13T12:11:42;28.60;50.10
9762;DHT22;4920;49.594;11.022;2023-07-13T12:14:14;28.90;50.20
9762;DHT22;4920;49.594;11.022;2023-07-13T12:16:45;29.40;49.60
9762;DHT22;4920;49.594;11.022;2023-07-13T12:19:19;29.40;48.40
9762;DHT22;4920;49.594;11.022;2023-07-13T12:21:50;29.40;48.80
9762;DHT22;4920;49.594;11.022;2023-07-13T12:24:21;29.30;49.00
9762;DHT22;4920;49.594;11.022;2023-07-13T12:26:52;29.10;49.40
9762;DHT22;4920;49.594;11.022;2023-07-13T12:29:21;29.00;49.90
9762;DHT22;4920;49.594;11.022;2023-07-13T12:31:51;29.20;50.60
9762;DHT22;4920;49.594;11.022;2023-07-13T12:34:21;29.20;49.10
9762;DHT22;4920;49.594;11.022;2023-07-13T12:36:53;29.10;49.40
9762;DHT22;4920;49.594;11.022;2023-07-13T12:39:25;29.20;49.50
9762;DHT22;4920;49.594;11.022;2023-07-13T12:42:18;29.30;49.00
9762;DHT22;4920;49.594;11.022;2023-07-13T12:44:48;29.20;49.70
9762;DHT22;4920;49.594;11.022;2023-07-13T12:47:20;29.20;49.30
9762;DHT22;4920;49.594;11.022;2023-07-13T12:49:52;29.30;49.60
9762;DHT22;4920;49.594;11.022;2023-07-13T12:52:23;29.20;49.00
9762;DHT22;4920;49.594;11.022;2023-07-13T12:54:53;29.20;49.60
9762;DHT22;4920;49.594;11.022;2023-07-13T12:57:34;29.30;49.60
9762;DHT22;4920;49.594;11.022;2023-07-13T13:00:20;29.20;49.60
9762;DHT22;4920;49.594;11.022;2023-07-13T13:02:55;28.80;49.80
9762;DHT22;4920;49.594;11.022;2023-07-13T13:05:44;28.60;50.50
9762;DHT22;4920;49.594;11.022;2023-07-13T13:08:13;28.70;50.40
9762;DHT22;4920;49.594;11.022;2023-07-13T13:10:42;28.90;50.00
9762;DHT22;4920;49.594;11.022;2023-07-13T13:13:13;28.90;50.10
9762;DHT22;4920;49.594;11.022;2023-07-13T13:15:41;28.90;50.60
9762;DHT22;4920;49.594;11.022;2023-07-13T13:18:17;29.10;49.60
9762;DHT22;4920;49.594;11.022;2023-07-13T13:20:47;29.10;50.40
9762;DHT22;4920;49.594;11.022;2023-07-13T13:23:18;29.20;50.20
9762;DHT22;4920;49.594;11.022;2023-07-13T13:25:48;29.60;50.30
9762;DHT22;4920;49.594;11.022;2023-07-13T13:28:19;29.80;49.20
9762;DHT22;4920;49.594;11.022;2023-07-13T13:30:50;29.70;48.60
9762;DHT22;4920;49.594;11.022;2023-07-13T13:33:21;29.40;49.40
9762;DHT22;4920;49.594;11.022;2023-07-13T13:35:50;29.10;50.10
9762;DHT22;4920;49.594;11.022;2023-07-13T13:38:23;28.80;49.70
9762;DHT22;4920;49.594;11.022;2023-07-13T13:40:52;28.40;50.40
9762;DHT22;4920;49.594;11.022;2023-07-13T13:43:23;28.10;50.80
9762;DHT22;4920;49.594;11.022;2023-07-13T13:45:56;27.90;51.00
9762;DHT22;4920;49.594;11.022;2023-07-13T13:48:31;28.00;51.00
9762;DHT22;4920;49.594;11.022;2023-07-13T13:51:01;28.00;51.20
9762;DHT22;4920;49.594;11.022;2023-07-13T13:53:32;27.90;51.30
9762;DHT22;4920;49.594;11.022;2023-07-13T13:56:01;27.80;51.10
9762;DHT22;4920;49.594;11.022;2023-07-13T13:58:30;27.90;50.60
9762;DHT22;4920;49.594;11.022;2023-07-13T14:00:59;28.10;50.70
9762;DHT22;4920;49.594;11.022;2023-07-13T14:03:29;28.10;50.10
9762;DHT22;4920;49.594;11.022;2023-07-13T14:05:58;28.30;50.00
9762;DHT22;4920;49.594;11.022;2023-07-13T14:08:27;28.50;49.30
9762;DHT22;4920;49.594;11.022;2023-07-13T14:10:57;28.40;49.70
9762;DHT22;4920;49.594;11.022;2023-07-13T14:13:42;28.30;49.60
9762;DHT22;4920;49.594;11.022;2023-07-13T14:16:17;28.10;50.20
9762;DHT22;4920;49.594;11.022;2023-07-13T14:18:48;28.10;50.20
9762;DHT22;4920;49.594;11.022;2023-07-13T14:21:21;28.00;50.10
9762;DHT22;4920;49.594;11.022;2023-07-13T14:23:50;28.10;49.80
9762;DHT22;4920;49.594;11.022;2023-07-13T14:26:20;28.00;49.70
9762;DHT22;4920;49.594;11.022;2023-07-13T14:28:51;28.10;49.80
9762;DHT22;4920;49.594;11.022;2023-07-13T14:31:22;28.40;49.90
9762;DHT22;4920;49.594;11.022;2023-07-13T14:33:58;28.40;49.70
9762;DHT22;4920;49.594;11.022;2023-07-13T14:36:29;28.40;49.70
9762;DHT22;4920;49.594;11.022;2023-07-13T14:38:59;28.20;50.00
9762;DHT22;4920;49.594;11.022;2023-07-13T14:41:29;28.10;50.30
9762;DHT22;4920;49.594;11.022;2023-07-13T14:43:57;28.20;50.30
9762;DHT22;4920;49.594;11.022;2023-07-13T14:46:29;28.30;49.70
9762;DHT22;4920;49.594;11.022;2023-07-13T14:49:03;28.40;49.90
9762;DHT22;4920;49.594;11.022;2023-07-13T14:51:33;28.60;49.80
9762;DHT22;4920;49.594;11.022;2023-07-13T14:54:05;28.50;49.80
9762;DHT22;4920;49.594;11.022;2023-07-13T14:56:34;28.40;49.70
9762;DHT22;4920;49.594;11.022;2023-07-13T14:59:02;28.00;49.90
9762;DHT22;4920;49.594;11.022;2023-07-13T15:01:32;27.70;50.50
9762;DHT22;4920;49.594;11.022;2023-07-13T15:04:03;27.40;51.00
9762;DHT22;4920;49.594;11.022;2023-07-13T15:06:55;27.10;51.20
9762;DHT22;4920;49.594;11.022;2023-07-13T15:09:24;27.20;50.90
9762;DHT22;4920;49.594;11.022;2023-07-13T15:11:54;27.40;50.30
9762;DHT22;4920;49.594;11.022;2023-07-13T15:14:23;27.50;50.40
9762;DHT22;4920;49.594;11.022;2023-07-13T15:16:55;27.80;50.60
9762;DHT22;4920;49.594;11.022;2023-07-13T15:19:26;28.00;50.70
9762;DHT22;4920;49.594;11.022;2023-07-13T15:21:55;28.10;50.40
9762;DHT22;4920;49.594;11.022;2023-07-13T15:24:26;28.00;50.70
9762;DHT22;4920;49.594;11.022;2023-07-13T15:26:54;27.90;50.60
9762;DHT22;4920;49.594;11.022;2023-07-13T15:29:23;27.80;50.90
9762;DHT22;4920;49.594;11.022;2023-07-13T15:31:52;27.70;51.30
9762;DHT22;4920;49.594;11.022;2023-07-13T15:34:26;27.50;51.60
9762;DHT22;4920;49.594;11.022;2023-07-13T15:36:54;27.60;51.60
9762;DHT22;4920;49.594;11.022;2023-07-13T15:39:23;27.70;52.00
9762;DHT22;4920;49.594;11.022;2023-07-13T15:41:52;27.90;51.30
9762;DHT22;4920;49.594;11.022;2023-07-13T15:44:26;28.10;50.70
9762;DHT22;4920;49.594;11.022;2023-07-13T15:46:56;28.20;49.80
9762;DHT22;4920;49.594;11.022;2023-07-13T15:49:29;27.90;51.10
9762;DHT22;4920;49.594;11.022;2023-07-13T15:51:57;27.80;50.60
9762;DHT22;4920;49.594;11.022;2023-07-13T15:54:26;27.60;51.10
9762;DHT22;4920;49.594;11.022;2023-07-13T15:57:01;27.50;51.40
9762;DHT22;4920;49.594;11.022;2023-07-13T15:59:30;27.40;51.30
9762;DHT22;4920;49.594;11.022;2023-07-13T16:01:59;27.20;51.70
9762;DHT22;4920;49.594;11.022;2023-07-13T16:04:29;27.00;52.30
9762;DHT22;4920;49.594;11.022;2023-07-13T16:06:58;26.90;52.60
9762;DHT22;4920;49.594;11.022;2023-07-13T16:09:27;27.00;52.40
9762;DHT22;4920;49.594;11.022;2023-07-13T16:11:56;27.20;52.20